High wind

Not for real navigation. The accuracy of this data is not assured See disclaimer for more information



ICAO NAME COUNTRY WIND Kt GUST Kt VIS m TEMP/DEW C BARO METAR
K0S9 600 11 9999 20/13 30.18 K0S9 262135Z AUTO 5.56000006G11KT 10SM CAVOK 20/13 A3018 RMK AO2
MRPV Tobias Bolanos International Costa Rica 77 0 3000 20/19 29.96 MRPV 262142Z 270077KT 3000 RA BR BKN004 20/19 A2996 NOSIG
CWVD Broughton Island Canada 33 0 9999 -5/0 29.70 CWVD 262100Z AUTO 32033KT M05/ A2970 RMK SLP107
SCRM 31 41 1200 0/0 28.61 SCRM 262100Z 32031G41KT 1200 -BLSN OVC008 M00/// Q0969
LIVC Monte Cimone Italy 31 0 9999 3/3 30.27 LIVC 262055Z 03031KT 0000 FG VV000 03/03 Q1025 RMK MON INVIS VAL INVIS VIS MIN 0000

Show more